Latest Weather Observations for Brisbane Airport

IDQ60801

Issued at 12:02 am EST Saturday 13 February 2016 (issued every 30 minutes, with the page automatically refreshed every 10 minutes)

About weather observations | Map of weather stations | Latest weather observations for QLD | Other Formats
Station Details ID: 040842 Name: BRISBANE AERO Lat: -27.39 Lon: 153.13 Height: 4.51 m
Data from the previous 72 hours. | See also: Recent months at Brisbane Airport
Date/Time
EST
Temp
°C
App
Temp
°C
Dew
Point
Rel
Hum
%
Delta-T
°C
Wind Press
QNH
hPa
Press
MSL
hPa
Rain
since 9 am
mm
Dir
 
Spd
km/h
Gust
km/h
Spd
kts
Gust
kts
12/11:30pm 23.0 23.2 17.7 72 3.3 S 13 19 7 10 1012.2 1012.2 0.0
12/11:00pm 23.2 23.4 17.7 71 3.4 S 13 17 7 9 1012.5 1012.5 0.0
12/10:30pm 23.3 23.6 18.0 72 3.3 S 13 20 7 11 1013.1 1013.1 0.0
12/10:00pm 23.7 24.0 17.8 69 3.7 SSW 13 19 7 10 1013.0 1013.0 0.0
12/09:30pm 23.9 24.2 18.0 69 3.7 SSW 13 17 7 9 1013.1 1013.1 0.0
12/09:00pm 23.9 23.6 18.3 71 3.5 S 17 28 9 15 1013.1 1013.1 0.0
12/08:30pm 24.2 23.9 18.3 69 3.7 SSE 17 28 9 15 1013.0 1013.0 0.0
12/08:00pm 24.2 24.2 18.2 69 3.8 SSE 15 33 8 18 1012.8 1012.8 0.0
12/07:30pm 24.6 24.9 17.9 66 4.2 SSE 13 19 7 10 1012.7 1012.7 0.0
12/07:00pm 24.9 23.8 17.2 62 4.8 SSE 19 33 10 18 1012.6 1012.6 0.0
12/06:30pm 25.4 23.9 16.3 57 5.6 SE 19 30 10 16 1012.4 1012.4 0.0
12/06:00pm 26.2 23.8 15.5 51 6.5 SE 22 35 12 19 1012.2 1012.2 0.0
12/05:30pm 26.4 24.5 15.8 52 6.5 SE 20 33 11 18 1012.0 1012.0 0.0
12/05:00pm 26.7 24.3 16.5 53 6.3 SE 24 39 13 21 1011.8 1011.8 0.0
12/04:30pm 26.9 24.7 17.0 54 6.2 ESE 24 41 13 22 1011.6 1011.6 0.0
12/04:10pm 26.9 24.4 18.1 58 5.6 ESE 28 46 15 25 1011.5 1011.5 0.0
12/04:00pm 26.9 24.6 17.5 56 5.9 ESE 26 43 14 23 1011.5 1011.5 0.0
12/03:30pm 27.8 24.9 17.9 54 6.3 ESE 30 48 16 26 1011.5 1011.5 0.0
12/03:27pm 27.3 24.6 17.6 55 6.1 ESE 28 46 15 25 1011.4 1011.4 0.0
12/03:00pm 27.9 25.5 18.2 55 6.2 ESE 28 41 15 22 1011.6 1011.6 0.0
12/02:30pm 28.2 26.0 17.8 53 6.6 ESE 26 44 14 24 1011.5 1011.5 0.0
12/02:00pm 27.3 25.3 18.2 57 5.8 ESE 26 46 14 25 1011.7 1011.7 0.0
12/01:30pm 27.1 25.0 18.1 58 5.7 ESE 26 41 14 22 1011.9 1011.9 0.0
12/01:00pm 28.1 25.5 17.9 54 6.5 ESE 28 43 15 23 1012.0 1012.0 0.0
12/12:30pm 28.5 26.5 18.2 53 6.6 ESE 26 43 14 23 1012.2 1012.2 0.0
12/12:00pm 28.1 25.8 16.7 50 7.1 ESE 24 43 13 23 1012.3 1012.3 0.0
12/11:30am 28.1 26.4 18.0 54 6.4 ESE 24 44 13 24 1012.6 1012.6 0.0
12/11:00am 28.4 26.8 18.4 54 6.4 ESE 24 37 13 20 1012.8 1012.8 0.0
12/10:30am 28.1 27.0 18.6 56 6.1 ESE 22 33 12 18 1012.9 1012.9 0.0
12/10:00am 27.6 26.4 18.5 57 5.8 SE 22 33 12 18 1013.1 1013.1 0.0
12/09:30am 27.0 25.7 18.2 58 5.6 ESE 22 33 12 18 1013.1 1013.1 0.0
12/09:00am 27.0 26.4 18.5 59 5.4 SE 19 33 10 18 1013.0 1013.0 0.0
12/08:30am 26.8 26.4 19.0 62 5.0 SE 19 30 10 16 1013.1 1013.1 0.0
12/08:00am 25.8 26.6 19.1 66 4.3 SE 13 24 7 13 1013.2 1013.2 0.0
12/07:30am 25.1 25.7 18.6 67 4.1 SSE 13 22 7 12 1013.1 1013.1 0.0
12/07:00am 23.3 23.9 17.7 71 3.5 S 11 17 6 9 1013.2 1013.2 0.0
12/06:30am 21.4 21.7 17.8 80 2.2 SSW 13 17 7 9 1012.9 1012.9 0.0
12/06:00am 20.1 20.7 17.7 86 1.5 SSW 11 15 6 8 1012.8 1012.8 0.0
12/05:30am 20.5 20.7 17.7 84 1.7 SSW 13 19 7 10 1012.8 1012.8 0.0
12/05:00am 20.1 20.0 17.8 86 1.4 SSW 15 20 8 11 1012.7 1012.7 0.0
12/04:30am 21.5 22.4 18.3 82 2.0 S 11 15 6 8 1012.2 1012.2 0.0
12/04:00am 21.7 22.6 18.5 82 2.0 S 11 15 6 8 1012.2 1012.2 0.0
12/03:30am 21.7 22.6 18.3 81 2.1 SSW 11 15 6 8 1012.2 1012.2 0.0
12/03:00am 21.4 21.9 18.4 83 1.9 SSW 13 17 7 9 1012.3 1012.3 0.0
12/02:30am 22.2 23.1 18.4 79 2.4 SSW 11 15 6 8 1012.4 1012.4 0.0
12/02:00am 22.1 22.6 18.4 79 2.3 SSW 13 19 7 10 1012.4 1012.4 0.0
12/01:30am 22.5 23.5 18.7 79 2.4 SSW 11 17 6 9 1012.5 1012.5 0.0
12/01:00am 22.6 23.2 18.6 78 2.5 SSW 13 19 7 10 1012.6 1012.6 0.0
12/12:30am 22.7 23.7 18.7 78 2.5 SSW 11 13 6 7 1012.7 1012.7 0.0
12/12:00am 22.7 23.8 18.9 79 2.4 SSW 11 13 6 7 1012.9 1012.9 0.0
 
Date/Time
EST
Temp
°C
App
Temp
°C
Dew
Point
Rel
Hum
%
Delta-T
°C
Wind Press
QNH
hPa
Press
MSL
hPa
Rain
since 9 am
mm
Dir
 
Spd
km/h
Gust
km/h
Spd
kts
Gust
kts
11/11:30pm 22.7 24.2 18.9 79 2.4 SSW 9 13 5 7 1013.0 1013.0 0.0
11/11:00pm 23.0 24.4 18.7 77 2.7 S 9 13 5 7 1013.3 1013.3 0.0
11/10:30pm 23.4 24.8 18.7 75 3.0 SSW 9 13 5 7 1013.5 1013.5 0.0
11/10:00pm 23.8 24.5 18.9 74 3.1 ESE 13 20 7 11 1013.4 1013.4 0.0
11/09:30pm 24.7 25.1 18.9 70 3.7 ESE 15 22 8 12 1013.4 1013.4 0.0
11/09:00pm 24.7 24.8 18.4 68 4.0 ESE 15 22 8 12 1013.3 1013.3 0.0
11/08:30pm 24.8 25.3 19.2 71 3.6 ESE 15 26 8 14 1013.3 1013.3 0.0
11/08:00pm 24.9 25.1 19.3 71 3.6 ESE 17 28 9 15 1013.1 1013.1 0.0
11/07:30pm 25.0 24.7 19.1 70 3.8 ESE 19 32 10 17 1012.9 1012.9 0.0
11/07:00pm 25.0 25.2 18.5 67 4.1 ESE 15 24 8 13 1012.6 1012.6 0.0
11/06:30pm 25.2 24.5 18.2 65 4.4 ESE 19 33 10 18 1012.4 1012.4 0.0
11/06:00pm 25.5 24.9 18.8 66 4.3 ESE 20 30 11 16 1012.0 1012.0 0.0
11/05:30pm 26.0 25.1 18.3 62 4.9 ESE 20 37 11 20 1011.6 1011.6 0.0
11/05:00pm 26.7 25.3 18.7 61 5.1 ESE 24 33 13 18 1011.2 1011.2 0.0
11/04:30pm 26.9 25.7 18.4 59 5.4 ESE 22 41 12 22 1011.1 1011.1 0.0
11/04:00pm 27.0 25.5 18.5 59 5.4 ESE 24 35 13 19 1011.0 1011.0 0.0
11/03:30pm 27.7 26.3 18.7 58 5.8 ESE 24 35 13 19 1011.0 1011.0 0.0
11/03:00pm 28.1 26.0 18.0 54 6.4 ESE 26 35 14 19 1011.0 1011.0 0.0
11/02:30pm 27.7 26.8 18.1 56 6.1 ESE 20 35 11 19 1011.1 1011.1 0.0
11/02:00pm 28.0 26.3 19.0 58 5.8 ESE 26 39 14 21 1011.2 1011.2 0.0
11/01:30pm 27.6 26.2 18.7 58 5.7 ESE 24 33 13 18 1011.4 1011.4 0.0
11/01:00pm 28.3 27.1 18.3 54 6.4 ESE 22 33 12 18 1011.8 1011.8 0.0
11/12:30pm 28.8 27.4 18.7 54 6.5 ESE 24 35 13 19 1012.3 1012.3 0.0
11/12:00pm 28.0 27.2 18.5 56 6.1 ESE 20 33 11 18 1012.6 1012.6 0.0
11/11:30am 28.1 27.1 18.9 57 5.9 ESE 22 35 12 19 1012.7 1012.7 0.0
11/11:00am 28.0 26.9 18.6 56 6.0 ESE 22 32 12 17 1012.6 1012.6 0.0
11/10:30am 27.8 26.4 18.8 58 5.8 ESE 24 35 13 19 1012.7 1012.7 0.0
11/10:00am 28.1 27.7 18.8 57 6.0 ESE 19 30 10 16 1013.0 1013.0 0.0
11/09:30am 27.6 26.9 18.7 58 5.7 SE 20 28 11 15 1012.9 1012.9 0.0
11/09:00am 27.5 27.3 18.6 58 5.7 SE 17 26 9 14 1013.0 1013.0 0.0
11/08:30am 26.6 26.0 17.5 57 5.7 SE 17 24 9 13 1012.9 1012.9 0.0
11/08:00am 25.3 25.7 18.9 67 4.1 S 15 20 8 11 1012.9 1012.9 0.0
11/07:30am 24.5 24.8 18.8 70 3.6 S 15 22 8 12 1012.9 1012.9 0.0
11/07:00am 22.9 23.4 18.4 76 2.8 SSW 13 17 7 9 1012.7 1012.7 0.0
11/06:30am 21.3 21.8 18.3 83 1.9 SSW 13 17 7 9 1012.6 1012.6 0.0
11/06:00am 20.0 20.3 17.9 88 1.3 SSW 13 15 7 8 1012.4 1012.4 0.0
11/05:30am 19.5 19.6 17.5 88 1.2 SSW 13 19 7 10 1012.1 1012.1 0.0
11/05:00am 19.7 20.3 17.6 88 1.3 SSW 11 15 6 8 1011.9 1011.9 0.0
11/04:30am 19.8 20.4 17.7 88 1.3 SSW 11 15 6 8 1011.7 1011.7 0.0
11/04:00am 19.9 20.5 17.8 88 1.3 SSW 11 15 6 8 1011.5 1011.5 0.0
11/03:30am 21.7 22.6 18.5 82 2.0 S 11 17 6 9 1011.4 1011.4 0.0
11/03:00am 21.6 22.5 18.4 82 2.0 SSW 11 15 6 8 1011.4 1011.4 0.0
11/02:30am 21.9 22.7 18.2 79 2.3 S 11 15 6 8 1011.6 1011.6 0.0
11/02:00am 21.8 23.0 18.3 80 2.2 S 9 17 5 9 1011.9 1011.9 0.0
11/01:30am 21.8 22.8 18.6 82 2.0 S 11 19 6 10 1012.1 1012.1 0.0
11/01:00am 22.1 22.8 18.9 82 2.0 S 13 20 7 11 1012.4 1012.4 0.0
11/12:30am 22.3 23.1 19.1 82 2.0 S 13 20 7 11 1012.6 1012.6 0.0
11/12:00am 22.7 24.1 19.6 82 2.0 SSE 11 19 6 10 1013.0 1013.0 0.0
 
Date/Time
EST
Temp
°C
App
Temp
°C
Dew
Point
Rel
Hum
%
Delta-T
°C
Wind Press
QNH
hPa
Press
MSL
hPa
Rain
since 9 am
mm
Dir
 
Spd
km/h
Gust
km/h
Spd
kts
Gust
kts
10/11:30pm 22.8 24.1 19.3 80 2.2 S 11 15 6 8 1013.3 1013.3 0.0
10/11:00pm 22.7 23.8 19.6 82 2.0 S 13 22 7 12 1013.5 1013.5 0.0
10/10:30pm 23.2 24.5 19.4 79 2.4 SSE 11 17 6 9 1013.5 1013.5 0.0
10/10:00pm 23.8 24.7 19.3 76 2.9 SE 13 26 7 14 1013.7 1013.7 0.0
10/09:30pm 23.9 24.2 18.7 72 3.3 SE 15 24 8 13 1013.6 1013.6 0.0
10/09:00pm 24.2 24.1 18.7 71 3.5 SE 17 28 9 15 1013.5 1013.5 0.0
10/08:30pm 24.0 24.0 18.1 69 3.7 SE 15 26 8 14 1013.4 1013.4 0.0
10/08:00pm 24.2 23.1 17.8 67 4.0 SE 20 32 11 17 1013.3 1013.3 0.0
10/07:30pm 24.6 24.4 18.6 69 3.8 SE 17 28 9 15 1012.9 1012.9 0.0
10/07:00pm 24.7 24.2 18.7 69 3.8 SE 19 30 10 16 1012.9 1012.9 0.0
10/06:30pm 24.8 24.3 18.7 69 3.9 SE 19 32 10 17 1012.5 1012.5 0.0
10/06:00pm 25.2 24.1 18.6 67 4.2 ESE 22 41 12 22 1012.2 1012.2 0.0
10/05:30pm 25.3 25.1 19.7 71 3.6 ESE 20 35 11 19 1012.0 1012.0 0.0
10/05:00pm 25.3 25.3 20.1 73 3.4 ESE 20 33 11 18 1011.7 1011.7 0.0
10/04:30pm 25.5 24.7 20.0 71 3.6 ESE 24 33 13 18 1011.4 1011.4 0.0
10/04:00pm 25.6 25.1 19.9 70 3.7 ESE 22 33 12 18 1011.3 1011.3 0.0
10/03:30pm 25.6 24.2 19.6 69 3.9 ESE 26 39 14 21 1011.2 1011.2 0.0
10/03:00pm 26.5 25.7 20.1 68 4.2 ESE 24 37 13 20 1011.3 1011.3 0.0
10/02:30pm 27.1 25.5 20.1 65 4.6 ESE 28 41 15 22 1011.4 1011.4 0.0
10/02:00pm 28.7 26.1 17.7 51 7.0 ESE 28 41 15 22 1011.7 1011.7 0.0
10/01:30pm 28.7 26.7 17.5 50 7.1 ESE 24 41 13 22 1011.9 1011.9 0.0
10/01:00pm 28.6 26.8 17.0 49 7.3 ESE 22 37 12 20 1012.2 1012.2 0.0
10/12:30pm 27.1 25.1 18.3 58 5.6 ESE 26 39 14 21 1012.5 1012.5 0.0
10/12:00pm 28.5 26.3 16.8 49 7.3 ESE 24 39 13 21 1012.4 1012.4 0.0
10/11:30am 28.3 26.8 16.8 49 7.2 ESE 20 32 11 17 1012.5 1012.5 0.0
10/11:00am 28.6 26.7 16.8 48 7.4 ESE 22 33 12 18 1012.8 1012.8 0.0
10/10:30am 28.2 26.8 17.0 50 7.0 ESE 20 30 11 16 1013.0 1013.0 0.0
10/10:00am 27.8 26.2 16.1 49 7.2 SE 19 28 10 15 1013.3 1013.3 0.0
10/09:30am 26.3 24.5 16.0 53 6.3 SE 20 33 11 18 1013.6 1013.6 0.0
10/09:00am 26.1 24.4 16.2 54 6.1 S 20 33 11 18 1013.7 1013.7 0.0
10/08:30am 25.3 23.7 16.1 56 5.6 S 19 30 10 16 1013.7 1013.7 0.0
10/08:00am 25.6 24.9 16.3 56 5.7 S 15 24 8 13 1013.7 1013.7 0.0
10/07:30am 24.0 23.2 16.1 61 4.8 S 15 26 8 14 1013.4 1013.4 0.0
10/07:00am 23.5 22.6 15.9 62 4.6 S 15 26 8 14 1013.2 1013.2 0.0
10/06:30am 23.1 22.2 15.8 63 4.4 SSW 15 20 8 11 1012.9 1012.9 0.0
10/06:00am 22.9 22.0 15.9 64 4.2 S 15 20 8 11 1012.7 1012.7 0.0
10/05:30am 22.7 22.0 16.3 67 3.9 S 15 24 8 13 1012.4 1012.4 0.0
10/05:00am 22.6 22.3 16.5 68 3.7 S 13 26 7 14 1012.4 1012.4 0.0
10/04:30am 22.4 21.3 16.3 68 3.7 S 17 33 9 18 1012.0 1012.0 0.0
10/04:00am 22.4 21.3 16.3 68 3.7 S 17 26 9 14 1011.9 1011.9 0.0
10/03:30am 22.3 21.3 16.6 70 3.5 S 17 30 9 16 1012.0 1012.0 0.0
10/03:00am 22.4 21.7 16.5 69 3.6 S 15 26 8 14 1012.1 1012.1 0.0
10/02:30am 22.4 21.9 16.8 70 3.4 S 15 26 8 14 1012.3 1012.3 0.0
10/02:00am 22.2 21.7 16.8 71 3.3 S 15 26 8 14 1012.7 1012.7 0.0
10/01:30am 22.2 21.7 17.0 72 3.2 S 15 26 8 14 1013.0 1013.0 0.0
10/01:00am 22.3 22.1 16.7 70 3.4 S 13 19 7 10 1013.3 1013.3 0.0
10/12:30am 22.0 21.9 16.9 73 3.1 S 13 19 7 10 1013.7 1013.7 0.0

Other Formats:

Comma delimited format used in spreadsheet applications
http://www.bom.gov.au/fwo/IDQ60801/IDQ60801.94578.axf

JavaScript Object Notation format (JSON) in row-major order
http://www.bom.gov.au/fwo/IDQ60801/IDQ60801.94578.json